createdAt,value
2023-03-17T00:00:47.057Z,9.30
2023-03-17T00:03:25.968Z,9.20
2023-03-17T00:05:55.327Z,8.30
2023-03-17T00:08:31.060Z,8.50
2023-03-17T00:11:00.336Z,8.00
2023-03-17T00:13:31.259Z,8.50
2023-03-17T00:16:02.125Z,8.80
2023-03-17T00:18:31.805Z,9.30
2023-03-17T00:21:00.774Z,8.50
2023-03-17T00:23:29.952Z,9.10
2023-03-17T00:25:58.819Z,9.40
2023-03-17T00:28:27.826Z,7.60
2023-03-17T00:31:01.056Z,7.60
2023-03-17T00:33:33.460Z,7.90
2023-03-17T00:36:02.015Z,8.70
2023-03-17T00:38:31.428Z,8.70
2023-03-17T00:41:01.529Z,8.70
2023-03-17T00:43:30.768Z,9.10
2023-03-17T00:45:58.875Z,7.60
2023-03-17T00:48:29.892Z,8.30
2023-03-17T00:50:58.402Z,8.80
2023-03-17T00:53:30.100Z,8.60
2023-03-17T00:56:01.009Z,8.70
2023-03-17T00:58:34.006Z,8.60
2023-03-17T01:01:02.455Z,9.00
2023-03-17T01:03:31.160Z,8.90
2023-03-17T01:06:00.543Z,9.50
2023-03-17T01:08:30.148Z,9.10
2023-03-17T01:10:59.495Z,8.60
2023-03-17T01:13:27.656Z,8.70
2023-03-17T01:15:57.209Z,8.70
2023-03-17T01:18:25.881Z,8.50
2023-03-17T01:20:54.782Z,8.90
2023-03-17T01:23:23.121Z,8.50
2023-03-17T01:25:51.188Z,7.20
2023-03-17T01:28:20.420Z,9.40
2023-03-17T01:30:49.269Z,9.30
2023-03-17T01:33:19.085Z,9.00
2023-03-17T01:35:47.317Z,8.40
2023-03-17T01:38:15.571Z,7.50
2023-03-17T01:40:50.615Z,7.50
2023-03-17T01:43:23.096Z,8.30
2023-03-17T01:46:16.130Z,8.20
2023-03-17T01:49:07.742Z,8.70
2023-03-17T01:51:58.904Z,9.20
2023-03-17T01:54:47.981Z,8.80
2023-03-17T01:57:18.683Z,7.90
2023-03-17T01:59:53.514Z,8.40
2023-03-17T02:02:31.046Z,8.90
2023-03-17T02:05:00.180Z,8.60
2023-03-17T02:07:29.152Z,8.90
2023-03-17T02:09:59.385Z,8.60
2023-03-17T02:12:29.191Z,8.50
2023-03-17T02:14:58.500Z,9.20
2023-03-17T02:17:28.852Z,8.90
2023-03-17T02:19:57.028Z,9.30
2023-03-17T02:22:25.457Z,8.70
2023-03-17T02:24:57.126Z,8.90
2023-03-17T02:27:35.983Z,8.90
2023-03-17T02:30:06.989Z,8.70
2023-03-17T02:32:37.447Z,9.10
2023-03-17T02:35:07.318Z,9.50
2023-03-17T02:37:39.164Z,8.60
2023-03-17T02:40:11.445Z,9.90
2023-03-17T02:42:41.229Z,8.20
2023-03-17T02:45:11.662Z,9.10
2023-03-17T02:47:41.531Z,9.70
2023-03-17T02:50:17.896Z,9.40
2023-03-17T02:52:48.785Z,9.10
2023-03-17T02:55:18.864Z,9.70
2023-03-17T02:57:46.895Z,9.80
2023-03-17T03:00:15.584Z,10.00
2023-03-17T03:02:43.733Z,9.00
2023-03-17T03:05:11.894Z,9.70
2023-03-17T03:07:39.891Z,9.60
2023-03-17T03:10:09.399Z,9.30
2023-03-17T03:12:37.518Z,10.10
2023-03-17T03:15:07.016Z,10.10
2023-03-17T03:17:35.824Z,10.00
2023-03-17T03:20:05.324Z,9.70
2023-03-17T03:22:33.499Z,9.40
2023-03-17T03:25:01.521Z,9.40
2023-03-17T03:27:30.161Z,8.50
2023-03-17T03:29:58.466Z,8.90
2023-03-17T03:32:27.719Z,8.50
2023-03-17T03:34:55.797Z,8.50
2023-03-17T03:37:23.824Z,7.50
2023-03-17T03:39:52.252Z,8.80
2023-03-17T03:42:20.498Z,7.60
2023-03-17T03:44:48.412Z,8.50
2023-03-17T03:47:16.370Z,8.00
2023-03-17T03:49:44.461Z,8.50
2023-03-17T03:52:12.373Z,9.20
2023-03-17T03:54:40.617Z,10.20
2023-03-17T03:57:08.697Z,8.30
2023-03-17T03:59:36.854Z,8.80
2023-03-17T04:02:05.090Z,9.20
2023-03-17T04:04:33.475Z,8.40
2023-03-17T04:07:02.047Z,9.20
2023-03-17T04:09:30.367Z,9.60
2023-03-17T04:11:58.464Z,9.30
2023-03-17T04:14:26.673Z,10.10
2023-03-17T04:16:54.847Z,8.90
2023-03-17T04:19:24.083Z,10.60
2023-03-17T04:21:54.350Z,10.00
2023-03-17T04:24:22.757Z,10.30
2023-03-17T04:26:52.053Z,10.60
2023-03-17T04:29:20.729Z,10.90
2023-03-17T04:31:48.808Z,9.60
2023-03-17T04:34:20.031Z,9.90
2023-03-17T04:36:48.450Z,10.60
2023-03-17T04:39:17.121Z,10.40
2023-03-17T04:41:46.529Z,10.70
2023-03-17T04:44:14.680Z,10.50
2023-03-17T04:46:42.685Z,10.10
2023-03-17T04:49:10.720Z,10.00
2023-03-17T04:51:38.845Z,10.00
2023-03-17T04:54:07.403Z,10.10
2023-03-17T04:56:36.194Z,10.40
2023-03-17T04:59:06.394Z,10.90
2023-03-17T05:01:34.666Z,10.50
2023-03-17T05:04:02.647Z,10.60
2023-03-17T05:06:31.725Z,10.90
2023-03-17T05:08:59.772Z,10.40
2023-03-17T05:11:27.781Z,10.10
2023-03-17T05:13:57.085Z,10.20
2023-03-17T05:16:25.357Z,10.50
2023-03-17T05:18:53.404Z,10.60
2023-03-17T05:21:21.958Z,10.80
2023-03-17T05:23:51.569Z,10.30
2023-03-17T05:26:21.284Z,10.90
2023-03-17T05:28:49.287Z,10.80
2023-03-17T05:31:19.253Z,10.70
2023-03-17T05:33:49.260Z,10.40
2023-03-17T05:36:18.526Z,10.20
2023-03-17T05:38:46.776Z,9.90
2023-03-17T05:41:16.680Z,9.90
2023-03-17T05:43:44.951Z,9.50
2023-03-17T05:46:13.821Z,10.00
2023-03-17T05:48:42.420Z,10.60
2023-03-17T05:51:11.513Z,9.60
2023-03-17T05:53:41.868Z,10.80
2023-03-17T05:56:12.896Z,9.30
2023-03-17T05:58:41.347Z,9.30
2023-03-17T06:01:10.405Z,9.80
2023-03-17T06:03:38.796Z,8.80
2023-03-17T06:06:07.103Z,8.00
2023-03-17T06:08:35.402Z,8.90
2023-03-17T06:11:05.887Z,8.70
2023-03-17T06:13:34.132Z,8.50
2023-03-17T06:16:03.663Z,8.90
2023-03-17T06:18:31.753Z,7.90
2023-03-17T06:21:00.097Z,8.50
2023-03-17T06:23:28.483Z,7.70
2023-03-17T06:25:57.724Z,8.70
2023-03-17T06:28:26.056Z,9.30
2023-03-17T06:30:56.725Z,9.40
2023-03-17T06:33:26.224Z,9.00
2023-03-17T06:35:54.868Z,8.50
2023-03-17T06:38:23.447Z,8.20
2023-03-17T06:40:51.878Z,9.20
2023-03-17T06:43:20.170Z,9.40
2023-03-17T06:45:48.166Z,8.60
2023-03-17T06:48:16.307Z,8.20
2023-03-17T06:50:47.348Z,7.60
2023-03-17T06:53:15.503Z,9.30
2023-03-17T06:55:43.738Z,7.90
2023-03-17T06:58:13.300Z,7.30
2023-03-17T07:00:42.062Z,8.90
2023-03-17T07:03:11.393Z,8.70
2023-03-17T07:05:39.495Z,9.00
2023-03-17T07:08:08.446Z,7.70
2023-03-17T07:10:37.577Z,9.30
2023-03-17T07:13:07.766Z,9.50
2023-03-17T07:15:37.505Z,9.30
2023-03-17T07:18:07.157Z,8.60
2023-03-17T07:20:35.851Z,9.00
2023-03-17T07:23:05.616Z,11.20
2023-03-17T07:25:37.022Z,8.70
2023-03-17T07:28:05.237Z,8.20
2023-03-17T07:30:34.163Z,8.80
2023-03-17T07:33:02.249Z,9.80
2023-03-17T07:35:32.618Z,9.00
2023-03-17T07:38:01.299Z,9.20
2023-03-17T07:40:29.854Z,8.40
2023-03-17T07:43:02.732Z,8.30
2023-03-17T07:45:32.736Z,6.50
2023-03-17T07:48:01.357Z,6.10
2023-03-17T07:50:29.869Z,6.20
2023-03-17T07:52:57.987Z,9.10
2023-03-17T07:55:27.328Z,7.10
2023-03-17T07:57:55.727Z,7.80
2023-03-17T08:00:24.519Z,5.50
2023-03-17T08:03:08.866Z,5.80
2023-03-17T08:05:37.791Z,5.70
2023-03-17T08:08:10.773Z,5.60
2023-03-17T08:10:39.761Z,4.40
2023-03-17T08:13:10.386Z,8.70
2023-03-17T08:15:40.023Z,5.10
2023-03-17T08:18:09.890Z,4.50
2023-03-17T08:20:37.914Z,5.40
2023-03-17T08:23:06.343Z,5.00
2023-03-17T08:25:34.470Z,4.30
2023-03-17T08:28:03.616Z,6.80
2023-03-17T08:30:33.744Z,4.00
2023-03-17T08:33:05.231Z,4.20
2023-03-17T08:35:34.641Z,4.70
2023-03-17T08:38:04.545Z,9.40
2023-03-17T08:40:33.576Z,4.10
2023-03-17T08:43:05.863Z,3.70
2023-03-17T08:45:34.636Z,4.50
2023-03-17T08:48:04.382Z,3.00
2023-03-17T08:50:32.860Z,2.70
2023-03-17T08:53:01.679Z,3.40
2023-03-17T08:55:30.044Z,3.40
2023-03-17T08:57:58.196Z,3.30
2023-03-17T09:00:29.123Z,3.40
2023-03-17T09:02:58.517Z,3.60
2023-03-17T09:05:27.610Z,12.80
2023-03-17T09:07:55.656Z,3.00
2023-03-17T09:10:26.907Z,4.00
2023-03-17T09:13:01.281Z,3.10
2023-03-17T09:15:30.138Z,2.70
2023-03-17T09:17:58.813Z,3.70
2023-03-17T09:20:27.614Z,3.50
2023-03-17T09:22:56.623Z,2.60
2023-03-17T09:25:25.053Z,3.10
2023-03-17T09:27:53.362Z,3.60
2023-03-17T09:30:23.504Z,3.70
2023-03-17T09:32:53.055Z,3.10
2023-03-17T09:35:22.401Z,6.20
2023-03-17T09:37:52.229Z,2.40
2023-03-17T09:40:33.941Z,2.40
2023-03-17T09:43:48.815Z,3.20
2023-03-17T09:48:56.686Z,2.90
2023-03-17T09:51:27.787Z,3.80
2023-03-17T09:54:00.011Z,4.70
2023-03-17T09:56:32.369Z,3.00
2023-03-17T09:59:07.902Z,2.90
2023-03-17T10:01:43.556Z,3.00
2023-03-17T10:04:12.158Z,4.50
2023-03-17T10:06:43.773Z,2.80
2023-03-17T10:09:45.157Z,3.40
2023-03-17T10:12:39.012Z,3.30
2023-03-17T10:15:23.516Z,3.10
2023-03-17T10:17:52.503Z,2.60
2023-03-17T10:20:37.220Z,2.00
2023-03-17T10:23:10.806Z,2.30
2023-03-17T10:25:39.605Z,2.40
2023-03-17T10:28:23.886Z,2.20
2023-03-17T10:30:55.789Z,1.90
2023-03-17T10:33:24.177Z,2.30
2023-03-17T10:35:52.566Z,5.40
2023-03-17T10:38:22.601Z,2.30
2023-03-17T10:41:13.636Z,1.90
2023-03-17T10:43:45.928Z,2.10
2023-03-17T10:46:24.449Z,2.10
2023-03-17T10:49:10.995Z,2.00
2023-03-17T10:51:40.845Z,2.00
2023-03-17T10:54:11.738Z,1.70
2023-03-17T10:56:42.993Z,1.80
2023-03-17T10:59:38.818Z,4.20
2023-03-17T11:02:22.029Z,1.70
2023-03-17T11:05:13.754Z,1.70
2023-03-17T11:07:43.185Z,1.50
2023-03-17T11:10:23.441Z,1.80
2023-03-17T11:13:03.938Z,2.80
2023-03-17T11:15:41.678Z,2.20
2023-03-17T11:18:43.143Z,2.20
2023-03-17T11:21:36.731Z,1.80
2023-03-17T11:24:33.845Z,1.70
2023-03-17T11:27:26.880Z,2.20
2023-03-17T11:30:35.411Z,4.70
2023-03-17T11:33:41.148Z,2.20
2023-03-17T11:36:20.887Z,2.70
2023-03-17T11:39:00.272Z,1.60
2023-03-17T11:41:46.502Z,1.30
2023-03-17T11:44:38.812Z,1.80
2023-03-17T11:47:14.246Z,3.20
2023-03-17T11:49:45.826Z,2.80
2023-03-17T11:52:26.882Z,2.70
2023-03-17T11:55:18.206Z,2.00
2023-03-17T11:58:05.692Z,2.40
2023-03-17T12:00:43.831Z,1.40
2023-03-17T12:03:28.252Z,1.80
2023-03-17T12:06:00.748Z,2.20
2023-03-17T12:08:35.571Z,1.50
2023-03-17T12:13:48.827Z,3.30
2023-03-17T12:16:23.454Z,2.30
2023-03-17T12:18:56.665Z,1.90
2023-03-17T12:21:33.032Z,2.50
2023-03-17T12:24:10.229Z,2.80
2023-03-17T12:26:57.756Z,2.40
2023-03-17T12:29:50.970Z,2.10
2023-03-17T12:32:37.457Z,2.30
2023-03-17T12:35:26.356Z,4.60
2023-03-17T12:38:01.404Z,2.20
2023-03-17T12:40:32.809Z,3.40
2023-03-17T12:43:13.121Z,4.60
2023-03-17T12:46:19.515Z,2.10
2023-03-17T12:49:10.221Z,2.90
2023-03-17T12:51:52.234Z,43.70
2023-03-17T12:54:27.155Z,3.30
2023-03-17T12:57:06.652Z,3.70
2023-03-17T12:59:36.673Z,3.90
2023-03-17T13:02:45.394Z,3.00
2023-03-17T13:05:17.173Z,2.90
2023-03-17T13:07:55.768Z,2.20
2023-03-17T13:10:46.708Z,2.40
2023-03-17T13:13:36.306Z,2.50
2023-03-17T13:16:06.301Z,2.60
2023-03-17T13:18:34.480Z,2.30
2023-03-17T13:21:02.901Z,41.40
2023-03-17T13:24:29.734Z,2.70
2023-03-17T13:27:02.350Z,2.60
2023-03-17T13:29:33.737Z,2.50
2023-03-17T13:32:28.214Z,2.40
2023-03-17T13:35:18.105Z,2.40
2023-03-17T13:38:21.187Z,2.80
2023-03-17T13:40:57.309Z,2.70
2023-03-17T13:43:46.648Z,2.80
2023-03-17T13:46:34.169Z,3.70
2023-03-17T13:49:16.553Z,3.60
2023-03-17T13:52:12.509Z,2.00
2023-03-17T13:54:47.266Z,2.20
2023-03-17T13:57:29.343Z,2.30
2023-03-17T14:00:22.000Z,2.60
2023-03-17T14:03:02.327Z,4.10
2023-03-17T14:05:36.515Z,2.40
2023-03-17T14:08:11.702Z,2.30
2023-03-17T14:10:40.487Z,2.10
2023-03-17T14:13:13.011Z,2.60
2023-03-17T14:16:09.477Z,2.60
2023-03-17T14:18:44.384Z,2.40
2023-03-17T14:21:25.598Z,2.10
2023-03-17T14:23:57.027Z,3.00
2023-03-17T14:26:32.169Z,2.70
2023-03-17T14:29:02.818Z,3.30
2023-03-17T14:31:31.735Z,2.80
2023-03-17T14:34:01.358Z,3.20
2023-03-17T14:36:33.838Z,3.70
2023-03-17T14:39:02.453Z,2.40
2023-03-17T14:41:35.375Z,5.90
2023-03-17T14:44:04.452Z,2.60
2023-03-17T14:46:41.206Z,2.10
2023-03-17T14:49:22.238Z,2.50
2023-03-17T14:51:53.848Z,2.90
2023-03-17T14:54:27.118Z,3.20
2023-03-17T14:57:02.161Z,3.30
2023-03-17T14:59:38.710Z,3.00
2023-03-17T15:02:18.325Z,2.60
2023-03-17T15:05:06.737Z,1.80
2023-03-17T15:07:42.290Z,2.70
2023-03-17T15:10:22.264Z,2.30
2023-03-17T15:13:00.883Z,2.70
2023-03-17T15:15:33.289Z,5.30
2023-03-17T15:18:12.222Z,2.60
2023-03-17T15:20:44.361Z,2.40
2023-03-17T15:23:17.098Z,2.00
2023-03-17T15:25:56.353Z,2.20
2023-03-17T15:28:35.574Z,2.40
2023-03-17T15:31:14.917Z,2.40
2023-03-17T15:33:43.546Z,2.40
2023-03-17T15:36:31.731Z,2.60
2023-03-17T15:39:04.420Z,2.50
2023-03-17T15:41:32.621Z,3.00
2023-03-17T15:44:04.023Z,3.40
2023-03-17T15:46:33.730Z,2.90
2023-03-17T15:49:02.174Z,2.60
2023-03-17T15:51:30.532Z,2.40
2023-03-17T15:53:59.201Z,2.60
2023-03-17T15:56:28.993Z,2.20
2023-03-17T15:58:57.081Z,1.90
2023-03-17T16:01:27.840Z,3.20
2023-03-17T16:03:58.066Z,2.20
2023-03-17T16:06:32.277Z,2.60
2023-03-17T16:09:01.601Z,2.60
2023-03-17T16:11:31.414Z,3.40
2023-03-17T16:14:01.371Z,3.00
2023-03-17T16:16:37.377Z,3.60
2023-03-17T16:19:09.434Z,4.30
2023-03-17T16:21:38.227Z,3.30
2023-03-17T16:24:06.767Z,3.00
2023-03-17T16:26:34.878Z,2.60
2023-03-17T16:29:12.305Z,3.50
2023-03-17T16:31:41.119Z,6.30
2023-03-17T16:34:21.128Z,9.70
2023-03-17T16:36:51.215Z,5.90
2023-03-17T16:39:22.554Z,5.80
2023-03-17T16:41:50.808Z,6.20
2023-03-17T16:44:21.955Z,6.80
2023-03-17T16:46:50.978Z,5.40
2023-03-17T16:49:23.734Z,7.50
2023-03-17T16:51:51.812Z,6.70
2023-03-17T16:54:21.381Z,8.50
2023-03-17T16:56:49.768Z,5.90
2023-03-17T16:59:21.318Z,5.40
2023-03-17T17:01:49.851Z,4.80
2023-03-17T17:04:18.343Z,6.50
2023-03-17T17:07:05.112Z,7.70
2023-03-17T17:09:33.125Z,9.10
2023-03-17T17:12:01.875Z,8.50
2023-03-17T17:14:30.307Z,7.40
2023-03-17T17:16:58.531Z,7.60
2023-03-17T17:19:27.167Z,7.30
2023-03-17T17:21:55.322Z,7.40
2023-03-17T17:24:23.517Z,8.50
2023-03-17T17:26:51.719Z,9.30
2023-03-17T17:29:19.794Z,9.90
2023-03-17T17:31:56.970Z,10.30
2023-03-17T17:34:25.606Z,13.30
2023-03-17T17:36:54.617Z,7.90
2023-03-17T17:39:23.185Z,7.40
2023-03-17T17:41:53.667Z,7.70
2023-03-17T17:44:22.941Z,6.80
2023-03-17T17:46:52.708Z,9.30
2023-03-17T17:49:21.283Z,10.40
2023-03-17T17:51:49.597Z,10.00
2023-03-17T17:54:19.501Z,9.20
2023-03-17T17:56:48.073Z,8.90
2023-03-17T17:59:16.774Z,8.10
2023-03-17T18:01:44.889Z,8.20
2023-03-17T18:04:13.079Z,6.20
2023-03-17T18:06:41.859Z,6.20
2023-03-17T18:09:10.627Z,6.70
2023-03-17T18:11:41.018Z,7.50
2023-03-17T18:14:09.853Z,5.50
2023-03-17T18:16:38.678Z,7.20
2023-03-17T18:19:11.363Z,7.30
2023-03-17T18:21:40.982Z,6.70
2023-03-17T18:24:09.462Z,7.20
2023-03-17T18:26:38.966Z,6.50
2023-03-17T18:29:09.142Z,8.80
2023-03-17T18:31:44.538Z,7.00
2023-03-17T18:34:21.933Z,7.00
2023-03-17T18:36:52.078Z,8.30
2023-03-17T18:39:20.278Z,6.80
2023-03-17T18:41:49.262Z,7.60
2023-03-17T18:44:19.855Z,6.90
2023-03-17T18:46:48.649Z,6.60
2023-03-17T18:49:16.888Z,8.30
2023-03-17T18:51:45.116Z,9.50
2023-03-17T18:54:13.796Z,9.60
2023-03-17T18:56:42.310Z,9.80
2023-03-17T18:59:11.944Z,9.30
2023-03-17T19:01:40.643Z,11.50
2023-03-17T19:04:08.928Z,11.80
2023-03-17T19:06:39.702Z,13.10
2023-03-17T19:09:09.601Z,12.90
2023-03-17T19:11:42.131Z,13.10
2023-03-17T19:14:11.987Z,13.50
2023-03-17T19:16:41.542Z,13.30
2023-03-17T19:19:12.657Z,14.70
2023-03-17T19:21:41.212Z,15.00
2023-03-17T19:24:11.890Z,14.80
2023-03-17T19:26:40.851Z,13.80
2023-03-17T19:29:10.201Z,15.70
2023-03-17T19:31:41.695Z,14.40
2023-03-17T19:34:13.139Z,11.30
2023-03-17T19:36:45.650Z,14.50
2023-03-17T19:39:16.718Z,12.60
2023-03-17T19:41:44.965Z,14.30
2023-03-17T19:44:13.422Z,16.50
2023-03-17T19:46:42.244Z,20.00
2023-03-17T19:49:11.801Z,13.70
2023-03-17T19:51:41.979Z,15.90
2023-03-17T19:54:12.496Z,16.00
2023-03-17T19:56:40.696Z,18.40
2023-03-17T19:59:09.166Z,16.60
2023-03-17T20:01:38.380Z,15.40
2023-03-17T20:04:12.008Z,17.20
2023-03-17T20:06:43.300Z,17.10
2023-03-17T20:09:12.334Z,15.60
2023-03-17T20:11:41.599Z,15.90
2023-03-17T20:14:09.750Z,16.40
2023-03-17T20:16:39.283Z,15.90
2023-03-17T20:19:08.665Z,15.10
2023-03-17T20:21:38.340Z,17.50
2023-03-17T20:24:07.101Z,17.50
2023-03-17T20:26:35.618Z,15.80
2023-03-17T20:29:03.805Z,18.10
2023-03-17T20:31:32.307Z,17.70
2023-03-17T20:34:00.466Z,16.80
2023-03-17T20:36:28.531Z,18.20
2023-03-17T20:38:56.915Z,19.00
2023-03-17T20:41:25.289Z,16.50
2023-03-17T20:43:53.538Z,17.30
2023-03-17T20:46:24.781Z,19.30
2023-03-17T20:48:59.134Z,17.40
2023-03-17T20:51:28.527Z,16.90
2023-03-17T20:53:58.532Z,17.40
2023-03-17T20:56:29.963Z,16.60
2023-03-17T20:58:59.110Z,15.60
2023-03-17T21:01:27.599Z,18.80
2023-03-17T21:03:56.084Z,18.90
2023-03-17T21:06:26.218Z,19.20
2023-03-17T21:08:56.698Z,18.10
2023-03-17T21:11:28.295Z,16.90
2023-03-17T21:13:57.964Z,18.50
2023-03-17T21:16:29.944Z,18.90
2023-03-17T21:18:59.182Z,18.50
2023-03-17T21:21:28.012Z,14.80
2023-03-17T21:23:57.131Z,16.50
2023-03-17T21:26:25.592Z,17.80
2023-03-17T21:28:54.787Z,17.90
2023-03-17T21:31:26.368Z,16.40
2023-03-17T21:33:55.038Z,16.60
2023-03-17T21:36:23.527Z,17.70
2023-03-17T21:38:51.810Z,17.20
2023-03-17T21:41:27.277Z,17.70
2023-03-17T21:43:55.508Z,18.00
2023-03-17T21:46:25.660Z,17.20
2023-03-17T21:48:54.382Z,18.20
2023-03-17T21:51:23.782Z,17.40
2023-03-17T21:53:53.970Z,18.70
2023-03-17T21:56:22.420Z,21.40
2023-03-17T21:58:50.933Z,17.50
2023-03-17T22:01:21.841Z,18.70
2023-03-17T22:03:52.226Z,20.30
2023-03-17T22:06:21.230Z,18.50
2023-03-17T22:08:51.963Z,21.10
2023-03-17T22:11:20.938Z,19.60
2023-03-17T22:13:49.133Z,18.80
2023-03-17T22:16:19.350Z,17.20
2023-03-17T22:18:47.583Z,21.50
2023-03-17T22:21:15.728Z,19.00
2023-03-17T22:23:46.333Z,19.60
2023-03-17T22:26:17.563Z,18.60
2023-03-17T22:28:47.857Z,20.40
2023-03-17T22:31:20.108Z,19.60
2023-03-17T22:33:50.543Z,18.60
2023-03-17T22:36:19.156Z,21.10
2023-03-17T22:38:47.878Z,22.20
2023-03-17T22:41:19.488Z,19.00
2023-03-17T22:43:48.247Z,16.60
2023-03-17T22:46:19.160Z,27.90
2023-03-17T22:48:48.179Z,18.80
2023-03-17T22:51:21.203Z,18.20
2023-03-17T22:53:51.590Z,22.40
2023-03-17T22:56:21.729Z,25.00
2023-03-17T22:58:49.931Z,27.30
2023-03-17T23:01:19.425Z,24.00
2023-03-17T23:03:47.802Z,23.80
2023-03-17T23:06:16.416Z,23.00
2023-03-17T23:08:45.967Z,22.20
2023-03-17T23:11:21.398Z,22.50
2023-03-17T23:13:50.705Z,23.10
2023-03-17T23:16:20.322Z,21.30
2023-03-17T23:18:58.296Z,22.90
2023-03-17T23:21:33.504Z,22.20
2023-03-17T23:24:04.069Z,22.60
2023-03-17T23:26:35.128Z,21.90
2023-03-17T23:29:05.828Z,20.80
2023-03-17T23:31:36.953Z,23.00
2023-03-17T23:34:09.524Z,23.60
2023-03-17T23:36:40.371Z,24.20
2023-03-17T23:39:09.157Z,24.70
2023-03-17T23:41:37.894Z,25.60
2023-03-17T23:44:06.610Z,25.20
2023-03-17T23:46:35.025Z,26.50
2023-03-17T23:49:04.455Z,26.50
2023-03-17T23:51:33.457Z,23.40
2023-03-17T23:54:02.683Z,21.90
2023-03-17T23:56:32.364Z,24.40
2023-03-17T23:59:01.654Z,23.40
